Time;durP1;ratioP1;P1;durP2;ratioP2;P2;SDS_P1;SDS_P2;PMS_P1;PMS_P2;Temp;Humidity;BMP_temperature;BMP_pressure;BME280_temperature;BME280_humidity;BME280_pressure;Samples;Min_cycle;Max_cycle;Signal;HPM_P1;HPM_P2
2022/11/02 00:01:31;;;;;;;6.03;1.52;;;10.90;99.90;;;;;;4995546;28;20026;-65
2022/11/02 00:03:57;;;;;;;7.20;1.30;;;10.90;99.90;;;;;;4993468;28;20409;-67
2022/11/02 00:06:23;;;;;;;11.98;2.17;;;10.90;99.90;;;;;;4999463;28;20037;-65
2022/11/02 00:08:48;;;;;;;9.55;2.70;;;10.90;99.90;;;;;;5005793;28;20026;-62
2022/11/02 00:11:14;;;;;;;13.60;1.88;;;11.00;99.90;;;;;;5001402;28;20026;-64
2022/11/02 00:13:39;;;;;;;5.65;1.42;;;11.00;99.90;;;;;;5002521;28;20045;-65
2022/11/02 00:16:09;;;;;;;7.85;2.33;;;11.00;99.90;;;;;;5001342;28;20121;-64
2022/11/02 00:18:35;;;;;;;10.32;2.33;;;11.10;99.90;;;;;;4999999;28;20041;-65
2022/11/02 00:21:02;;;;;;;14.60;3.67;;;11.20;99.90;;;;;;5002151;28;20026;-64
2022/11/02 00:23:28;;;;;;;10.65;1.77;;;11.20;99.90;;;;;;5004513;28;20030;-65
2022/11/02 00:25:55;;;;;;;10.60;1.70;;;11.30;99.90;;;;;;5002818;28;20029;-63
2022/11/02 00:28:20;;;;;;;14.75;1.80;;;11.40;99.90;;;;;;4995601;28;20030;-67
2022/11/02 00:30:46;;;;;;;9.85;2.38;;;11.40;99.90;;;;;;5001831;28;20508;-66
2022/11/02 00:33:12;;;;;;;5.30;1.55;;;11.50;99.90;;;;;;5005288;28;20112;-65
2022/11/02 00:35:38;;;;;;;18.73;1.58;;;11.50;99.90;;;;;;4993250;28;20548;-64
2022/11/02 00:38:04;;;;;;;10.93;1.75;;;11.60;99.90;;;;;;5005678;28;20030;-64
2022/11/02 00:40:30;;;;;;;9.32;1.60;;;11.60;99.90;;;;;;5001081;28;20385;-64
2022/11/02 00:42:56;;;;;;;9.27;1.98;;;11.70;99.90;;;;;;4997427;28;20097;-63
2022/11/02 00:45:22;;;;;;;9.85;1.77;;;11.70;99.90;;;;;;5000311;28;20116;-63
2022/11/02 00:47:48;;;;;;;12.18;1.30;;;11.80;99.90;;;;;;5000572;28;20060;-65
2022/11/02 00:50:13;;;;;;;8.00;2.00;;;11.80;99.90;;;;;;4996894;28;20030;-67
2022/11/02 00:52:41;;;;;;;11.40;2.28;;;11.80;99.90;;;;;;5000250;28;20073;-64
2022/11/02 00:55:07;;;;;;;19.55;1.92;;;11.90;99.90;;;;;;5001023;28;20034;-66
2022/11/02 00:57:34;;;;;;;12.00;1.92;;;11.90;99.90;;;;;;4998537;28;20085;-64
2022/11/02 00:59:59;;;;;;;8.90;1.73;;;11.90;99.90;;;;;;4997054;28;20765;-65
2022/11/02 01:02:26;;;;;;;8.75;1.42;;;11.90;99.90;;;;;;5000333;28;20060;-65
2022/11/02 01:04:51;;;;;;;13.25;2.05;;;11.90;99.90;;;;;;4977448;28;20053;-65
2022/11/02 01:07:17;;;;;;;9.65;1.63;;;11.90;99.90;;;;;;4996113;28;20390;-65
2022/11/02 01:09:43;;;;;;;8.15;1.83;;;11.90;99.90;;;;;;4987645;28;20036;-64
2022/11/02 01:12:08;;;;;;;19.17;2.85;;;11.80;99.90;;;;;;4993376;28;20041;-64
2022/11/02 01:14:34;;;;;;;8.98;1.70;;;11.90;99.90;;;;;;5000583;28;20068;-65
2022/11/02 01:17:00;;;;;;;11.05;2.15;;;11.80;99.90;;;;;;5001272;28;20595;-64
2022/11/02 01:19:26;;;;;;;9.65;2.20;;;11.80;99.90;;;;;;4998333;28;20026;-65
2022/11/02 01:21:51;;;;;;;6.60;1.45;;;11.90;99.90;;;;;;4994822;28;20816;-62
2022/11/02 01:24:17;;;;;;;10.75;1.92;;;11.80;99.90;;;;;;5004799;28;20018;-64
2022/11/02 01:26:42;;;;;;;7.40;1.63;;;11.80;99.90;;;;;;5000454;28;20085;-66
2022/11/02 01:29:08;;;;;;;11.77;2.25;;;11.90;99.90;;;;;;4996375;28;20462;-64
2022/11/02 01:31:33;;;;;;;6.80;1.65;;;11.90;99.90;;;;;;5000273;28;20061;-65
2022/11/02 01:33:59;;;;;;;11.05;2.42;;;11.80;99.90;;;;;;4991494;28;20026;-64
2022/11/02 01:36:25;;;;;;;17.55;2.10;;;11.90;99.90;;;;;;5001149;28;20030;-64
2022/11/02 01:38:51;;;;;;;11.60;1.83;;;11.90;99.90;;;;;;5008334;28;20045;-65
2022/11/02 01:41:17;;;;;;;7.43;2.30;;;11.90;99.90;;;;;;5006209;28;20022;-66
2022/11/02 01:43:44;;;;;;;11.48;2.40;;;12.00;99.90;;;;;;4999252;28;20033;-65
2022/11/02 01:46:10;;;;;;;6.07;1.85;;;12.00;99.90;;;;;;5005556;28;20065;-64
2022/11/02 01:48:47;;;;;;;10.73;1.80;;;12.10;99.90;;;;;;4998245;28;20064;-65
2022/11/02 01:51:21;;;;;;;9.38;1.77;;;12.00;99.90;;;;;;5001689;28;20112;-65
2022/11/02 01:53:50;;;;;;;;;;;12.10;99.90;;;;;;5002800;28;20034;-64
2022/11/02 01:56:19;;;;;;;8.77;2.25;;;12.10;99.90;;;;;;4996188;28;20028;-65
2022/11/02 01:58:51;;;;;;;12.52;1.88;;;12.00;99.90;;;;;;5005798;28;20045;-66
2022/11/02 02:01:16;;;;;;;14.00;2.08;;;12.00;99.90;;;;;;5006709;28;20014;-65
2022/11/02 02:03:42;;;;;;;9.20;1.80;;;12.00;99.90;;;;;;5010908;28;20500;-65
2022/11/02 02:06:12;;;;;;;12.23;2.40;;;12.00;99.90;;;;;;5003718;28;20942;-66
2022/11/02 02:08:43;;;;;;;9.73;2.20;;;12.00;99.90;;;;;;5011823;28;20072;-66
2022/11/02 02:11:29;;;;;;;14.45;3.15;;;11.90;99.90;;;;;;5005984;28;20042;-65
2022/11/02 02:14:04;;;;;;;20.45;2.83;;;11.80;99.90;;;;;;4996307;28;20032;-65
2022/11/02 02:17:03;;;;;;;11.15;2.80;;;11.70;99.90;;;;;;5017289;23;20489;-64
2022/11/02 02:19:47;;;;;;;21.00;2.58;;;11.60;99.90;;;;;;5011620;28;20026;-65
2022/11/02 02:22:56;;;;;;;22.13;1.83;;;11.50;99.90;;;;;;4998596;28;20023;-63
2022/11/02 02:25:51;;;;;;;17.30;2.08;;;11.40;99.90;;;;;;5009136;28;20038;-63
2022/11/02 02:28:45;;;;;;;13.65;1.95;;;11.40;99.90;;;;;;5011951;28;20036;-64
2022/11/02 02:31:35;;;;;;;7.55;1.50;;;11.30;99.90;;;;;;5012197;28;20026;-64
2022/11/02 02:34:18;;;;;;;14.40;2.10;;;11.30;99.90;;;;;;5008856;28;20041;-64
2022/11/02 02:36:50;;;;;;;10.38;2.08;;;11.40;99.90;;;;;;5013336;28;20037;-64
2022/11/02 02:39:23;;;;;;;9.57;2.28;;;11.30;99.90;;;;;;5011906;28;20018;-64
2022/11/02 02:41:57;;;;;;;12.23;1.90;;;11.20;99.90;;;;;;5011823;28;20021;-63
2022/11/02 02:44:28;;;;;;;10.10;1.90;;;11.20;99.90;;;;;;5013537;28;20142;-64
2022/11/02 02:46:59;;;;;;;11.98;2.38;;;11.20;99.90;;;;;;5012473;28;20092;-64
2022/11/02 02:49:30;;;;;;;15.02;2.38;;;11.20;99.90;;;;;;5011615;28;20038;-64
2022/11/02 02:51:58;;;;;;;13.18;1.90;;;11.20;99.90;;;;;;5011097;28;20034;-64
2022/11/02 02:54:36;;;;;;;7.00;1.50;;;11.10;99.90;;;;;;5011386;28;20030;-64
2022/11/02 02:57:16;;;;;;;7.72;1.70;;;11.00;99.90;;;;;;5010184;28;20083;-64
2022/11/02 02:59:43;;;;;;;8.65;1.73;;;10.90;99.90;;;;;;5011484;28;20461;-63
2022/11/02 03:02:24;;;;;;;12.63;1.92;;;10.90;99.90;;;;;;5010793;28;20393;-64
2022/11/02 03:04:49;;;;;;;17.45;2.58;;;10.70;99.90;;;;;;5011907;28;20044;-64
2022/11/02 03:07:33;;;;;;;15.02;2.13;;;10.80;99.90;;;;;;5011567;28;20026;-65
2022/11/02 03:10:37;;;;;;;6.80;1.67;;;10.70;99.90;;;;;;5011368;28;20029;-64
2022/11/02 03:13:10;;;;;;;8.00;2.42;;;10.70;99.90;;;;;;5006220;28;20098;-64
2022/11/02 03:15:42;;;;;;;11.43;2.10;;;10.70;99.90;;;;;;5006055;28;20049;-64
2022/11/02 03:18:20;;;;;;;11.23;1.95;;;10.60;99.90;;;;;;5011817;28;20040;-63
2022/11/02 03:21:13;;;;;;;15.68;2.00;;;10.60;99.90;;;;;;5009356;28;20068;-64
2022/11/02 03:23:47;;;;;;;11.10;1.67;;;10.50;99.90;;;;;;5024148;28;20029;-63
2022/11/02 03:26:13;;;;;;;10.40;2.05;;;10.50;99.90;;;;;;5007973;28;20128;-64
2022/11/02 03:28:47;;;;;;;9.27;1.58;;;10.40;99.90;;;;;;5011470;28;20117;-64
2022/11/02 03:31:18;;;;;;;13.90;1.88;;;10.40;99.90;;;;;;5010906;28;20036;-63
2022/11/02 03:34:10;;;;;;;6.47;1.90;;;10.40;99.90;;;;;;5005755;28;20022;-64
2022/11/02 03:36:44;;;;;;;7.65;1.40;;;10.50;99.90;;;;;;5000106;28;20408;-65
2022/11/02 03:39:12;;;;;;;12.55;2.60;;;10.50;99.90;;;;;;5011535;28;20045;-64
2022/11/02 03:41:42;;;;;;;15.20;2.00;;;10.60;99.90;;;;;;5017821;28;20263;-64
2022/11/02 03:44:13;;;;;;;4.65;1.38;;;10.70;99.90;;;;;;5011317;28;20044;-64
2022/11/02 03:46:42;;;;;;;9.02;1.42;;;10.70;99.90;;;;;;5010244;28;20105;-64
2022/11/02 03:49:12;;;;;;;5.35;1.45;;;10.70;99.90;;;;;;5010111;28;20025;-64
2022/11/02 03:51:42;;;;;;;13.30;1.95;;;10.70;99.90;;;;;;5008975;28;20030;-65
2022/11/02 03:54:24;;;;;;;9.90;2.08;;;10.70;99.90;;;;;;5010984;28;20497;-64
2022/11/02 03:56:55;;;;;;;11.57;1.98;;;10.70;99.90;;;;;;5005301;28;20030;-65
2022/11/02 03:59:21;;;;;;;13.32;2.08;;;10.70;99.90;;;;;;5009299;28;20026;-64
2022/11/02 04:01:49;;;;;;;10.63;2.97;;;10.70;99.90;;;;;;5009438;28;20034;-64
2022/11/02 04:04:15;;;;;;;13.45;2.22;;;10.70;99.90;;;;;;5012410;28;20477;-64
2022/11/02 04:06:45;;;;;;;12.57;2.17;;;10.70;99.90;;;;;;5009703;28;20038;-64
2022/11/02 04:09:11;;;;;;;6.20;1.38;;;10.60;99.90;;;;;;5010780;28;20048;-64
2022/11/02 04:14:36;;;;;;;10.55;2.25;;;10.50;99.90;;;;;;5011502;28;20041;-64
2022/11/02 04:19:47;;;;;;;13.40;2.10;;;10.30;99.90;;;;;;5011293;28;20053;-65
2022/11/02 04:25:17;;;;;;;12.18;2.35;;;10.30;99.90;;;;;;5008926;28;20068;-64
2022/11/02 04:27:52;;;;;;;10.15;2.28;;;10.30;99.90;;;;;;5010652;28;20017;-64
2022/11/02 04:30:19;;;;;;;11.05;2.33;;;10.30;99.90;;;;;;5010080;28;20037;-64
2022/11/02 04:35:32;;;;;;;9.55;2.80;;;10.20;99.90;;;;;;5011013;28;20037;-64
2022/11/02 04:40:43;;;;;;;12.63;2.75;;;10.10;99.90;;;;;;5010358;28;20041;-64
2022/11/02 04:43:09;;;;;;;14.13;2.65;;;10.10;99.90;;;;;;5008390;28;20036;-64
2022/11/02 04:45:34;;;;;;;6.65;2.47;;;10.10;99.90;;;;;;5010754;28;20392;-64
2022/11/02 04:48:02;;;;;;;15.18;2.75;;;10.00;99.90;;;;;;5009972;28;20026;-64
2022/11/02 04:50:28;;;;;;;11.93;2.33;;;10.10;99.90;;;;;;5024332;28;20056;-63
2022/11/02 04:53:00;;;;;;;14.05;3.90;;;10.10;99.90;;;;;;5009576;28;20482;-64
2022/11/02 04:55:27;;;;;;;10.27;2.10;;;10.10;99.90;;;;;;5005989;28;20030;-64
2022/11/02 04:57:53;;;;;;;6.45;2.17;;;10.10;99.90;;;;;;5009495;28;20026;-64
2022/11/02 05:00:20;;;;;;;11.13;2.45;;;10.20;99.90;;;;;;5008791;28;20041;-64
2022/11/02 05:02:47;;;;;;;11.80;2.33;;;10.20;99.90;;;;;;5008417;28;20057;-64
2022/11/02 05:05:13;;;;;;;9.45;2.40;;;10.20;99.90;;;;;;5004553;28;20026;-63
2022/11/02 05:07:38;;;;;;;12.60;2.30;;;10.20;99.90;;;;;;5007265;28;20069;-65
2022/11/02 05:10:04;;;;;;;6.22;1.92;;;10.20;99.90;;;;;;5009532;28;20789;-64
2022/11/02 05:12:30;;;;;;;20.20;3.70;;;10.10;99.90;;;;;;5009312;28;20058;-63
2022/11/02 05:14:56;;;;;;;9.32;2.83;;;10.00;99.90;;;;;;5008707;28;20042;-64
2022/11/02 05:17:22;;;;;;;8.90;2.13;;;10.00;99.90;;;;;;5008080;28;20026;-65
2022/11/02 05:19:47;;;;;;;8.80;2.38;;;10.00;99.90;;;;;;4996730;28;20624;-63
2022/11/02 05:22:13;;;;;;;10.73;2.50;;;9.90;99.90;;;;;;5007773;28;20509;-64
2022/11/02 05:24:38;;;;;;;11.48;2.15;;;9.90;99.90;;;;;;4992380;28;20075;-64
2022/11/02 05:27:04;;;;;;;10.00;3.33;;;9.90;99.90;;;;;;5023164;28;20038;-64
2022/11/02 05:29:30;;;;;;;11.65;2.00;;;10.00;99.90;;;;;;5008539;28;20025;-62
2022/11/02 05:31:56;;;;;;;14.60;2.75;;;10.00;99.90;;;;;;5010101;28;20037;-64
2022/11/02 05:34:22;;;;;;;16.77;3.72;;;10.00;99.90;;;;;;5010627;28;20029;-64
2022/11/02 05:36:48;;;;;;;10.45;3.42;;;10.00;99.90;;;;;;5008782;28;20092;-64
2022/11/02 05:39:13;;;;;;;10.90;2.85;;;10.00;99.90;;;;;;5006739;28;20026;-64
2022/11/02 05:41:39;;;;;;;9.52;2.00;;;9.90;99.90;;;;;;5007349;28;20049;-63
2022/11/02 05:44:05;;;;;;;11.50;2.33;;;9.90;99.90;;;;;;5009895;28;20531;-64
2022/11/02 05:46:30;;;;;;;8.02;2.40;;;9.90;99.90;;;;;;5025937;28;20137;-64
2022/11/02 05:48:56;;;;;;;6.63;2.67;;;9.90;99.90;;;;;;5009203;28;20489;-64
2022/11/02 05:51:22;;;;;;;9.18;2.42;;;9.90;99.90;;;;;;5006427;28;20504;-63
2022/11/02 05:53:47;;;;;;;12.13;1.67;;;9.80;99.90;;;;;;5008539;28;20026;-64
2022/11/02 05:56:13;;;;;;;11.20;2.90;;;9.80;99.90;;;;;;5008613;28;20037;-63
2022/11/02 05:58:39;;;;;;;16.13;2.90;;;9.70;99.90;;;;;;4996349;28;20118;-63
2022/11/02 06:01:07;;;;;;;11.60;2.58;;;9.70;99.90;;;;;;5005573;28;20153;-65
2022/11/02 06:03:34;;;;;;;14.45;2.70;;;9.70;99.90;;;;;;5009632;28;20080;-65
2022/11/02 06:06:03;;;;;;;9.15;2.00;;;9.60;99.90;;;;;;5008342;28;20026;-63
2022/11/02 06:08:37;;;;;;;7.88;1.50;;;9.60;99.90;;;;;;5008446;28;20030;-63
2022/11/02 06:11:08;;;;;;;8.25;2.25;;;9.60;99.90;;;;;;5021710;28;20026;-64
2022/11/02 06:13:34;;;;;;;13.00;2.50;;;9.50;99.90;;;;;;5006937;28;20030;-65
2022/11/02 06:16:01;;;;;;;23.15;2.97;;;9.50;99.90;;;;;;5007363;28;20120;-63
2022/11/02 06:18:26;;;;;;;8.45;2.58;;;9.40;99.90;;;;;;5009144;28;20029;-62
2022/11/02 06:20:52;;;;;;;15.98;2.13;;;9.50;99.90;;;;;;4989821;28;20486;-65
2022/11/02 06:23:18;;;;;;;8.90;2.40;;;9.50;99.90;;;;;;5009252;28;20033;-65
2022/11/02 06:25:53;;;;;;;14.52;2.47;;;9.60;99.90;;;;;;5007396;28;20068;-65
2022/11/02 06:28:19;;;;;;;8.20;1.85;;;9.70;99.90;;;;;;5004522;28;20402;-65
2022/11/02 06:30:45;;;;;;;13.18;1.98;;;9.80;99.90;;;;;;5008924;28;20057;-65
2022/11/02 06:33:11;;;;;;;9.10;2.25;;;9.90;99.90;;;;;;5008717;28;20528;-65
2022/11/02 06:35:36;;;;;;;12.73;2.05;;;10.00;99.90;;;;;;5007077;28;20611;-65
2022/11/02 06:38:02;;;;;;;8.27;2.13;;;10.10;99.90;;;;;;5008236;28;20022;-65
2022/11/02 06:40:28;;;;;;;9.55;1.90;;;10.20;99.90;;;;;;5006797;28;20113;-64
2022/11/02 06:42:57;;;;;;;11.05;1.60;;;10.20;99.90;;;;;;5006330;28;20821;-64
2022/11/02 06:45:24;;;;;;;13.75;1.88;;;10.30;99.90;;;;;;5008133;28;20026;-64
2022/11/02 06:47:49;;;;;;;13.13;1.95;;;10.30;99.90;;;;;;5011084;28;20034;-64
2022/11/02 06:50:15;;;;;;;15.45;2.40;;;10.40;99.90;;;;;;5012817;28;20029;-64
2022/11/02 06:52:45;;;;;;;6.95;1.27;;;10.40;99.90;;;;;;5007392;28;20030;-64
2022/11/02 06:55:12;;;;;;;7.35;1.45;;;10.50;99.90;;;;;;5012249;28;20052;-63
2022/11/02 06:57:38;;;;;;;9.13;2.40;;;10.60;99.90;;;;;;5013075;28;20393;-64
2022/11/02 07:00:07;;;;;;;12.98;2.05;;;10.70;99.90;;;;;;5010809;28;20068;-64
2022/11/02 07:02:32;;;;;;;10.88;2.67;;;10.80;99.90;;;;;;5008293;28;20544;-64
2022/11/02 07:04:58;;;;;;;7.72;2.10;;;10.90;99.90;;;;;;5008591;28;20034;-65
2022/11/02 07:07:24;;;;;;;11.90;2.05;;;11.00;99.90;;;;;;5025839;28;20531;-64
2022/11/02 07:09:49;;;;;;;5.57;1.65;;;11.00;99.90;;;;;;5004051;28;20034;-63
2022/11/02 07:12:15;;;;;;;10.40;2.00;;;11.00;99.90;;;;;;5010158;28;20515;-65
2022/11/02 07:14:40;;;;;;;12.40;2.03;;;11.10;99.90;;;;;;5011025;28;20048;-64
2022/11/02 07:17:06;;;;;;;5.53;1.73;;;11.20;99.90;;;;;;5007463;28;20025;-64
2022/11/02 07:19:31;;;;;;;7.55;1.48;;;11.30;99.90;;;;;;5024908;28;20083;-64
2022/11/02 07:21:57;;;;;;;9.10;2.13;;;11.20;99.90;;;;;;5010729;28;20022;-65
2022/11/02 07:24:23;;;;;;;7.30;1.95;;;11.20;99.90;;;;;;5011118;28;20373;-64
2022/11/02 07:26:49;;;;;;;9.93;3.03;;;11.10;99.90;;;;;;5000698;28;20037;-64
2022/11/02 07:29:18;;;;;;;9.70;2.20;;;11.00;99.90;;;;;;5009362;28;20061;-65
2022/11/02 07:31:44;;;;;;;9.88;2.50;;;11.00;99.90;;;;;;5015715;28;20033;-65
2022/11/02 07:34:10;;;;;;;7.57;2.08;;;11.00;99.90;;;;;;5011420;28;20389;-63
2022/11/02 07:36:36;;;;;;;7.38;2.20;;;11.10;99.90;;;;;;5009438;28;20122;-64
2022/11/02 07:39:02;;;;;;;11.85;2.50;;;11.20;99.90;;;;;;4980402;28;20563;-65
2022/11/02 07:41:28;;;;;;;10.15;2.17;;;11.40;99.90;;;;;;5011079;28;20025;-65
2022/11/02 07:43:53;;;;;;;7.13;2.47;;;11.50;99.90;;;;;;5010049;28;20420;-64
2022/11/02 07:46:19;;;;;;;11.18;2.45;;;11.70;99.90;;;;;;5011407;28;20041;-64
2022/11/02 07:48:46;;;;;;;6.97;1.90;;;11.80;99.90;;;;;;5012068;28;20037;-65
2022/11/02 07:51:12;;;;;;;10.82;1.83;;;11.90;99.90;;;;;;5010472;28;20082;-65
2022/11/02 07:53:38;;;;;;;18.17;2.45;;;12.00;99.90;;;;;;5004591;28;20536;-64
2022/11/02 07:56:04;;;;;;;9.95;2.42;;;12.10;99.90;;;;;;5009059;28;20165;-65
2022/11/02 07:58:30;;;;;;;6.95;1.90;;;12.10;99.90;;;;;;5010546;28;20374;-64
2022/11/02 08:01:00;;;;;;;10.45;2.58;;;12.10;99.90;;;;;;5011352;28;20041;-64
2022/11/02 08:03:26;;;;;;;13.70;1.92;;;12.10;99.90;;;;;;5011828;28;20014;-65
2022/11/02 08:05:52;;;;;;;11.50;2.42;;;12.10;99.90;;;;;;5008058;28;20030;-64
2022/11/02 08:08:20;;;;;;;8.50;2.08;;;12.10;99.90;;;;;;5011145;28;20029;-65
2022/11/02 08:10:48;;;;;;;10.70;2.05;;;12.10;99.90;;;;;;5008266;28;20034;-64
2022/11/02 08:13:19;;;;;;;13.40;2.15;;;12.10;99.90;;;;;;5007255;28;20378;-65
2022/11/02 08:15:51;;;;;;;11.07;2.15;;;12.20;99.90;;;;;;5010392;28;20026;-65
2022/11/02 08:18:22;;;;;;;8.95;2.45;;;12.40;99.90;;;;;;5009433;28;20025;-64
2022/11/02 08:20:49;;;;;;;8.50;2.03;;;12.50;99.90;;;;;;5037396;23;20127;-67
2022/11/02 08:23:16;;;;;;;10.73;2.25;;;12.50;99.90;;;;;;5029177;28;20038;-67
2022/11/02 08:25:44;;;;;;;12.65;1.70;;;12.50;99.90;;;;;;5029661;28;20031;-68
2022/11/02 08:28:35;;;;;;;6.40;1.73;;;12.60;99.90;;;;;;5034455;28;20040;-67
2022/11/02 08:31:01;;;;;;;10.43;2.28;;;12.70;99.90;;;;;;5005049;28;20041;-67
2022/11/02 08:33:27;;;;;;;7.90;1.77;;;12.80;99.90;;;;;;5008461;28;20045;-67
2022/11/02 08:35:52;;;;;;;7.95;1.52;;;12.90;99.90;;;;;;5010821;28;20108;-67
2022/11/02 08:38:21;;;;;;;9.00;2.20;;;13.00;99.90;;;;;;5008612;28;20025;-67
2022/11/02 08:40:47;;;;;;;11.60;1.90;;;13.10;99.90;;;;;;4989738;28;20034;-67
2022/11/02 08:43:14;;;;;;;7.47;1.48;;;13.20;99.90;;;;;;5008789;28;20022;-66
2022/11/02 08:45:42;;;;;;;10.27;2.13;;;13.20;99.90;;;;;;5004311;28;20038;-68
2022/11/02 08:48:08;;;;;;;9.52;1.70;;;13.20;99.90;;;;;;5006748;28;20041;-67
2022/11/02 08:50:34;;;;;;;9.88;1.67;;;13.20;99.90;;;;;;5010227;28;20088;-67
2022/11/02 08:53:00;;;;;;;6.13;1.60;;;13.20;99.90;;;;;;5004267;28;20033;-67
2022/11/02 08:55:26;;;;;;;7.50;1.70;;;13.20;99.90;;;;;;5010181;28;20042;-67
2022/11/02 08:57:57;;;;;;;9.02;1.85;;;13.20;99.90;;;;;;5009079;28;20026;-66
2022/11/02 09:00:28;;;;;;;6.20;1.65;;;13.30;99.90;;;;;;5001770;28;20050;-67
2022/11/02 09:02:58;;;;;;;10.60;2.00;;;13.30;99.90;;;;;;5007927;28;20434;-67
2022/11/02 09:05:24;;;;;;;7.32;2.58;;;13.30;99.90;;;;;;5004329;28;20100;-67
2022/11/02 09:07:58;;;;;;;5.65;1.95;;;13.20;99.90;;;;;;5006216;28;20117;-67
2022/11/02 09:10:24;;;;;;;;;;;13.10;99.90;;;;;;5008718;28;20108;-66
2022/11/02 09:12:51;;;;;;;7.45;1.45;;;13.10;99.90;;;;;;5007731;28;20019;-67
2022/11/02 09:15:16;;;;;;;8.85;1.65;;;13.20;99.90;;;;;;5009702;28;20064;-67
2022/11/02 09:17:45;;;;;;;11.55;2.70;;;13.50;99.90;;;;;;5007929;28;20474;-67
2022/11/02 09:20:11;;;;;;;5.90;1.80;;;13.80;99.90;;;;;;5009734;28;20018;-67
2022/11/02 09:22:36;;;;;;;12.23;2.03;;;14.00;99.90;;;;;;5007663;28;20034;-68
2022/11/02 09:25:02;;;;;;;10.82;1.90;;;14.20;99.90;;;;;;5009222;28;20025;-69
2022/11/02 09:27:28;;;;;;;10.50;1.85;;;14.50;99.90;;;;;;5007749;28;20428;-67
2022/11/02 09:29:53;;;;;;;9.20;2.22;;;14.50;99.90;;;;;;5005860;28;20056;-67
2022/11/02 09:32:19;;;;;;;6.55;1.70;;;14.70;99.90;;;;;;5005550;28;20032;-67
2022/11/02 09:34:46;;;;;;;9.18;1.70;;;14.70;99.90;;;;;;5008910;28;20049;-67
2022/11/02 09:37:11;;;;;;;3.13;1.40;;;14.80;99.90;;;;;;5003557;28;20026;-67
2022/11/02 09:39:37;;;;;;;6.38;2.58;;;14.80;99.90;;;;;;5005011;28;20029;-68
2022/11/02 09:42:26;;;;;;;8.68;2.35;;;14.90;99.90;;;;;;5008537;28;20083;-67
2022/11/02 09:45:00;;;;;;;6.22;1.60;;;15.00;99.90;;;;;;5007890;28;20088;-68
2022/11/02 09:47:28;;;;;;;7.75;2.03;;;15.20;99.90;;;;;;5005368;28;20033;-67
2022/11/02 09:49:59;;;;;;;6.47;2.35;;;15.30;99.90;;;;;;4991285;28;20412;-67
2022/11/02 09:52:36;;;;;;;11.82;2.35;;;15.30;99.90;;;;;;5007356;28;20064;-68
2022/11/02 09:55:09;;;;;;;8.38;1.95;;;15.30;99.90;;;;;;5004049;28;20037;-67
2022/11/02 09:57:35;;;;;;;8.88;1.73;;;15.30;99.90;;;;;;5006267;28;20097;-67
2022/11/02 10:00:00;;;;;;;5.78;1.75;;;15.10;99.90;;;;;;5001973;28;20030;-67
2022/11/02 10:03:13;;;;;;;5.85;1.58;;;15.10;99.90;;;;;;5005265;28;20375;-67
2022/11/02 10:05:46;;;;;;;9.75;2.85;;;15.10;99.90;;;;;;4963469;28;20042;-67
2022/11/02 10:08:30;;;;;;;9.02;1.88;;;15.10;99.40;;;;;;5006383;28;20104;-67
2022/11/02 10:11:14;;;;;;;11.68;1.85;;;15.10;99.70;;;;;;5003219;28;20034;-68
2022/11/02 10:13:46;;;;;;;11.40;2.42;;;15.00;98.80;;;;;;4997634;28;20121;-67
2022/11/02 10:16:26;;;;;;;9.30;1.60;;;14.80;99.10;;;;;;5004674;28;20096;-67
2022/11/02 10:18:53;;;;;;;6.45;1.77;;;14.70;99.30;;;;;;5002823;28;20021;-67
2022/11/02 10:21:32;;;;;;;14.45;2.13;;;14.70;99.80;;;;;;5017971;28;20553;-67
2022/11/02 10:24:09;;;;;;;8.80;2.90;;;14.70;99.10;;;;;;5010019;28;20026;-68
2022/11/02 10:26:36;;;;;;;7.88;1.67;;;14.80;99.20;;;;;;5009177;28;20507;-67
2022/11/02 10:29:16;;;;;;;7.32;3.17;;;14.80;98.20;;;;;;5012353;28;20029;-68
2022/11/02 10:31:42;;;;;;;12.52;2.00;;;14.80;98.90;;;;;;5009008;28;20029;-67
2022/11/02 10:34:27;;;;;;;7.78;1.42;;;14.90;98.80;;;;;;5010121;28;20026;-67
2022/11/02 10:37:28;;;;;;;7.78;1.55;;;14.90;99.00;;;;;;5003718;28;20449;-67
2022/11/02 10:40:13;;;;;;;7.78;2.28;;;14.80;97.10;;;;;;5012629;28;20034;-67
2022/11/02 10:42:51;;;;;;;11.25;1.90;;;14.70;96.20;;;;;;5012917;28;20428;-67
2022/11/02 10:45:33;;;;;;;6.03;1.17;;;14.60;95.80;;;;;;5012392;28;20034;-67
2022/11/02 10:48:16;;;;;;;10.40;2.13;;;14.60;95.60;;;;;;5004806;28;20053;-66
2022/11/02 10:51:07;;;;;;;7.03;1.40;;;14.60;95.90;;;;;;5005926;28;20728;-67
2022/11/02 10:53:37;;;;;;;3.97;1.48;;;14.80;95.40;;;;;;4993146;28;20069;-67
2022/11/02 10:56:22;;;;;;;17.92;2.55;;;14.70;95.30;;;;;;5011512;28;20069;-67
2022/11/02 10:59:13;;;;;;;8.68;1.65;;;14.70;96.20;;;;;;5011172;28;20022;-67
2022/11/02 11:02:03;;;;;;;5.40;1.30;;;14.80;94.70;;;;;;5000646;28;20049;-68
2022/11/02 11:04:31;;;;;;;10.30;2.08;;;14.90;95.40;;;;;;5008980;28;20029;-68
2022/11/02 11:07:03;;;;;;;5.05;2.10;;;15.00;95.40;;;;;;5011438;28;20033;-68
2022/11/02 11:09:52;;;;;;;17.88;2.72;;;15.10;95.40;;;;;;5012749;28;20055;-68
2022/11/02 11:12:39;;;;;;;5.70;1.70;;;15.10;96.00;;;;;;5009541;28;20468;-68
2022/11/02 11:15:06;;;;;;;5.70;1.55;;;15.20;95.20;;;;;;5011772;28;20574;-68
2022/11/02 11:17:35;;;;;;;10.27;2.50;;;15.30;94.70;;;;;;5006088;28;20027;-68
2022/11/02 11:20:03;;;;;;;3.92;1.73;;;15.30;95.60;;;;;;5011210;28;20092;-68
2022/11/02 11:22:31;;;;;;;4.60;1.58;;;15.40;95.80;;;;;;5001454;28;20030;-67
2022/11/02 11:25:11;;;;;;;10.32;1.42;;;15.40;94.70;;;;;;5005765;28;20026;-67
2022/11/02 11:27:49;;;;;;;7.35;1.63;;;15.30;94.60;;;;;;5009231;28;20026;-68
2022/11/02 11:30:30;;;;;;;6.30;2.55;;;15.30;95.00;;;;;;5009577;28;20576;-68
2022/11/02 11:32:57;;;;;;;6.38;1.80;;;15.30;94.90;;;;;;5003296;28;20036;-68
2022/11/02 11:35:30;;;;;;;6.05;1.70;;;15.30;94.10;;;;;;5010439;28;20089;-67
2022/11/02 11:38:14;;;;;;;7.35;1.65;;;15.50;94.80;;;;;;5008588;28;20057;-68
2022/11/02 11:40:43;;;;;;;;;;;15.60;95.00;;;;;;5010321;28;20100;-68
2022/11/02 11:43:13;;;;;;;12.63;1.30;;;15.70;94.10;;;;;;5008809;28;19916;-68
2022/11/02 11:45:39;;;;;;;7.57;1.48;;;15.50;94.00;;;;;;5003924;28;20100;-68
2022/11/02 11:48:19;;;;;;;9.63;1.60;;;15.60;94.40;;;;;;5009293;28;20126;-69
2022/11/02 11:50:47;;;;;;;5.65;1.80;;;15.60;94.10;;;;;;5010587;28;20452;-67
2022/11/02 11:53:12;;;;;;;8.23;1.40;;;15.60;94.70;;;;;;5005647;28;20034;-68
2022/11/02 11:55:57;;;;;;;9.98;2.20;;;15.60;94.50;;;;;;5010610;28;20180;-68
2022/11/02 11:58:25;;;;;;;8.07;1.65;;;15.60;94.50;;;;;;5007206;28;20028;-68
2022/11/02 12:01:19;;;;;;;4.00;1.63;;;15.60;94.90;;;;;;4984094;28;20480;-68
2022/11/02 12:03:55;;;;;;;10.35;1.80;;;15.50;94.70;;;;;;5017280;28;20034;-68
2022/11/02 12:06:35;;;;;;;8.70;1.80;;;15.40;95.00;;;;;;5005206;28;20046;-67
2022/11/02 12:09:24;;;;;;;6.05;1.92;;;15.40;95.10;;;;;;5011721;28;20489;-68
2022/11/02 12:12:16;;;;;;;9.32;1.42;;;15.50;95.40;;;;;;5001941;28;20038;-67
2022/11/02 12:15:06;;;;;;;7.00;1.52;;;15.70;95.60;;;;;;5008625;28;20044;-67
2022/11/02 12:18:10;;;;;;;6.32;1.73;;;15.80;95.90;;;;;;5008802;28;20044;-68
2022/11/02 12:20:59;;;;;;;7.97;1.77;;;15.70;95.00;;;;;;5009905;28;20851;-68
2022/11/02 12:23:39;;;;;;;4.72;1.70;;;15.40;95.50;;;;;;5003617;28;20444;-67
2022/11/02 12:26:22;;;;;;;10.23;2.15;;;15.30;95.70;;;;;;5009337;28;20045;-67
2022/11/02 12:29:26;;;;;;;6.43;1.40;;;15.10;96.20;;;;;;5009370;28;20308;-68
2022/11/02 12:32:12;;;;;;;11.15;1.67;;;15.10;96.60;;;;;;5004838;28;20041;-68
2022/11/02 12:35:12;;;;;;;6.78;1.27;;;15.20;97.30;;;;;;5009775;28;20022;-67
2022/11/02 12:37:44;;;;;;;8.70;2.10;;;15.20;97.30;;;;;;5004769;28;20037;-67
2022/11/02 12:40:16;;;;;;;4.80;1.42;;;15.20;96.40;;;;;;5003070;28;20056;-67
2022/11/02 12:43:08;;;;;;;9.32;2.67;;;15.20;96.10;;;;;;5000808;28;20058;-66
2022/11/02 12:45:47;;;;;;;5.15;1.85;;;15.20;96.70;;;;;;5023594;28;20445;-67
2022/11/02 12:48:24;;;;;;;8.35;1.88;;;15.20;96.20;;;;;;5009189;28;20057;-67
2022/11/02 12:51:01;;;;;;;10.68;1.70;;;15.20;95.80;;;;;;4996581;28;20113;-67
2022/11/02 12:53:47;;;;;;;4.88;1.45;;;15.20;95.70;;;;;;5007882;28;20029;-67
2022/11/02 12:56:19;;;;;;;6.03;1.25;;;15.10;96.10;;;;;;5004210;28;20034;-68
2022/11/02 12:58:45;;;;;;;5.22;1.20;;;15.10;95.90;;;;;;5001528;28;20033;-68
2022/11/02 13:01:41;;;;;;;9.63;2.65;;;15.10;95.50;;;;;;5000046;28;20046;-67
2022/11/02 13:04:18;;;;;;;7.57;2.63;;;15.10;95.70;;;;;;5005426;28;20068;-66
2022/11/02 13:06:48;;;;;;;8.90;1.45;;;15.10;95.30;;;;;;5001852;28;20429;-67
2022/11/02 13:09:52;;;;;;;6.07;1.67;;;15.10;95.50;;;;;;5008273;28;20056;-67
2022/11/02 13:12:21;;;;;;;7.90;2.90;;;15.10;95.90;;;;;;5007615;28;20042;-66
2022/11/02 13:14:52;;;;;;;5.55;1.88;;;15.10;95.70;;;;;;5005849;28;20041;-67
2022/11/02 13:17:38;;;;;;;10.07;1.58;;;15.00;94.80;;;;;;5006993;28;20509;-67
2022/11/02 13:20:14;;;;;;;9.60;1.83;;;14.80;95.10;;;;;;5007898;28;20457;-67